sensor_id;sensor_type;location;lat;lon;timestamp;P1;durP1;ratioP1;P2;durP2;ratioP2
21804;SDS011;11064;47.102;15.452;2023-04-24T04:03:10;35.22;;;19.45;;
21804;SDS011;11064;47.102;15.452;2023-04-24T04:05:35;37.95;;;21.10;;
21804;SDS011;11064;47.102;15.452;2023-04-24T04:08:01;36.22;;;20.40;;
21804;SDS011;11064;47.102;15.452;2023-04-24T04:10:27;36.58;;;20.73;;
21804;SDS011;11064;47.102;15.452;2023-04-24T04:12:53;35.08;;;19.65;;
21804;SDS011;11064;47.102;15.452;2023-04-24T04:15:19;40.97;;;20.42;;
21804;SDS011;11064;47.102;15.452;2023-04-24T04:17:44;38.70;;;20.70;;
21804;SDS011;11064;47.102;15.452;2023-04-24T04:20:11;40.40;;;21.23;;
21804;SDS011;11064;47.102;15.452;2023-04-24T04:22:37;42.63;;;21.08;;
21804;SDS011;11064;47.102;15.452;2023-04-24T04:25:03;38.55;;;20.73;;
21804;SDS011;11064;47.102;15.452;2023-04-24T04:27:29;36.72;;;20.80;;
21804;SDS011;11064;47.102;15.452;2023-04-24T04:30:00;35.97;;;20.80;;
21804;SDS011;11064;47.102;15.452;2023-04-24T04:32:30;40.67;;;21.83;;
21804;SDS011;11064;47.102;15.452;2023-04-24T04:34:59;40.45;;;21.75;;
21804;SDS011;11064;47.102;15.452;2023-04-24T04:37:31;36.00;;;20.88;;
21804;SDS011;11064;47.102;15.452;2023-04-24T04:39:58;40.63;;;22.33;;
21804;SDS011;11064;47.102;15.452;2023-04-24T04:42:28;45.97;;;21.55;;
21804;SDS011;11064;47.102;15.452;2023-04-24T04:44:54;46.95;;;21.63;;
21804;SDS011;11064;47.102;15.452;2023-04-24T04:47:22;44.20;;;21.75;;
21804;SDS011;11064;47.102;15.452;2023-04-24T04:49:48;35.33;;;20.60;;
21804;SDS011;11064;47.102;15.452;2023-04-24T04:52:16;37.03;;;21.23;;
21804;SDS011;11064;47.102;15.452;2023-04-24T04:54:43;40.55;;;22.25;;
21804;SDS011;11064;47.102;15.452;2023-04-24T04:57:09;39.45;;;22.52;;
21804;SDS011;11064;47.102;15.452;2023-04-24T04:59:35;38.22;;;22.83;;
21804;SDS011;11064;47.102;15.452;2023-04-24T05:02:02;45.55;;;22.25;;
21804;SDS011;11064;47.102;15.452;2023-04-24T05:04:28;41.22;;;22.23;;
21804;SDS011;11064;47.102;15.452;2023-04-24T05:06:53;44.72;;;22.98;;
21804;SDS011;11064;47.102;15.452;2023-04-24T05:09:19;50.78;;;23.77;;
21804;SDS011;11064;47.102;15.452;2023-04-24T05:11:45;46.22;;;23.52;;
21804;SDS011;11064;47.102;15.452;2023-04-24T05:14:11;45.78;;;23.80;;
21804;SDS011;11064;47.102;15.452;2023-04-24T05:16:37;44.53;;;24.38;;
21804;SDS011;11064;47.102;15.452;2023-04-24T05:19:04;48.67;;;24.65;;
21804;SDS011;11064;47.102;15.452;2023-04-24T05:21:31;43.20;;;24.67;;
21804;SDS011;11064;47.102;15.452;2023-04-24T05:23:56;46.08;;;24.10;;
21804;SDS011;11064;47.102;15.452;2023-04-24T05:26:22;46.55;;;24.55;;
21804;SDS011;11064;47.102;15.452;2023-04-24T05:28:48;45.40;;;25.08;;
21804;SDS011;11064;47.102;15.452;2023-04-24T05:31:15;49.03;;;25.05;;
21804;SDS011;11064;47.102;15.452;2023-04-24T05:33:42;43.15;;;23.40;;
21804;SDS011;11064;47.102;15.452;2023-04-24T05:36:08;41.50;;;22.75;;
21804;SDS011;11064;47.102;15.452;2023-04-24T05:38:34;42.05;;;23.25;;
21804;SDS011;11064;47.102;15.452;2023-04-24T05:41:00;40.28;;;23.27;;
21804;SDS011;11064;47.102;15.452;2023-04-24T05:43:26;50.92;;;24.52;;
21804;SDS011;11064;47.102;15.452;2023-04-24T05:45:52;53.97;;;23.00;;
21804;SDS011;11064;47.102;15.452;2023-04-24T05:48:18;221.10;;;29.67;;
21804;SDS011;11064;47.102;15.452;2023-04-24T05:50:44;99.88;;;24.65;;
21804;SDS011;11064;47.102;15.452;2023-04-24T05:53:12;44.35;;;23.38;;
21804;SDS011;11064;47.102;15.452;2023-04-24T05:55:38;360.40;;;34.70;;
21804;SDS011;11064;47.102;15.452;2023-04-24T05:58:04;45.63;;;24.63;;
21804;SDS011;11064;47.102;15.452;2023-04-24T06:00:29;50.75;;;25.13;;
21804;SDS011;11064;47.102;15.452;2023-04-24T06:02:55;189.82;;;30.13;;
21804;SDS011;11064;47.102;15.452;2023-04-24T06:05:21;99.57;;;27.77;;
21804;SDS011;11064;47.102;15.452;2023-04-24T06:07:47;57.22;;;27.75;;
21804;SDS011;11064;47.102;15.452;2023-04-24T06:10:13;56.60;;;29.33;;
21804;SDS011;11064;47.102;15.452;2023-04-24T06:12:39;59.50;;;30.77;;
21804;SDS011;11064;47.102;15.452;2023-04-24T06:15:05;58.42;;;30.75;;
21804;SDS011;11064;47.102;15.452;2023-04-24T06:17:32;55.38;;;29.15;;
21804;SDS011;11064;47.102;15.452;2023-04-24T06:19:57;39.40;;;23.35;;
21804;SDS011;11064;47.102;15.452;2023-04-24T06:22:23;40.22;;;24.23;;
21804;SDS011;11064;47.102;15.452;2023-04-24T06:24:49;39.92;;;23.08;;
21804;SDS011;11064;47.102;15.452;2023-04-24T06:27:15;40.55;;;23.48;;
21804;SDS011;11064;47.102;15.452;2023-04-24T06:29:41;34.28;;;22.38;;
21804;SDS011;11064;47.102;15.452;2023-04-24T06:32:06;35.05;;;22.55;;
21804;SDS011;11064;47.102;15.452;2023-04-24T06:34:32;34.15;;;20.30;;
21804;SDS011;11064;47.102;15.452;2023-04-24T06:36:59;37.10;;;20.42;;
21804;SDS011;11064;47.102;15.452;2023-04-24T06:39:25;26.10;;;18.42;;
21804;SDS011;11064;47.102;15.452;2023-04-24T06:41:51;25.60;;;17.92;;
21804;SDS011;11064;47.102;15.452;2023-04-24T06:44:17;29.05;;;18.63;;
21804;SDS011;11064;47.102;15.452;2023-04-24T06:46:43;25.33;;;17.40;;
21804;SDS011;11064;47.102;15.452;2023-04-24T06:49:09;23.08;;;16.45;;
21804;SDS011;11064;47.102;15.452;2023-04-24T06:51:35;19.83;;;14.40;;
21804;SDS011;11064;47.102;15.452;2023-04-24T06:54:01;17.95;;;13.82;;
21804;SDS011;11064;47.102;15.452;2023-04-24T06:56:27;17.80;;;13.25;;
21804;SDS011;11064;47.102;15.452;2023-04-24T06:58:54;19.88;;;13.45;;
21804;SDS011;11064;47.102;15.452;2023-04-24T07:01:20;17.60;;;13.30;;
21804;SDS011;11064;47.102;15.452;2023-04-24T07:03:46;18.05;;;12.10;;
21804;SDS011;11064;47.102;15.452;2023-04-24T07:06:11;15.38;;;12.35;;
21804;SDS011;11064;47.102;15.452;2023-04-24T07:08:37;15.02;;;11.10;;
21804;SDS011;11064;47.102;15.452;2023-04-24T07:11:03;14.80;;;10.98;;
21804;SDS011;11064;47.102;15.452;2023-04-24T07:13:29;19.73;;;11.35;;
21804;SDS011;11064;47.102;15.452;2023-04-24T07:15:55;15.15;;;11.48;;
21804;SDS011;11064;47.102;15.452;2023-04-24T07:18:21;15.00;;;11.63;;
21804;SDS011;11064;47.102;15.452;2023-04-24T07:20:47;14.15;;;11.80;;
21804;SDS011;11064;47.102;15.452;2023-04-24T07:23:15;17.75;;;12.38;;
21804;SDS011;11064;47.102;15.452;2023-04-24T07:25:42;16.10;;;12.30;;
21804;SDS011;11064;47.102;15.452;2023-04-24T07:28:07;17.50;;;13.00;;
21804;SDS011;11064;47.102;15.452;2023-04-24T07:30:33;19.42;;;12.88;;
21804;SDS011;11064;47.102;15.452;2023-04-24T07:32:59;20.08;;;13.80;;
21804;SDS011;11064;47.102;15.452;2023-04-24T07:35:28;20.02;;;15.23;;
21804;SDS011;11064;47.102;15.452;2023-04-24T07:37:53;25.13;;;15.00;;
21804;SDS011;11064;47.102;15.452;2023-04-24T07:40:20;21.10;;;15.35;;
21804;SDS011;11064;47.102;15.452;2023-04-24T07:42:46;24.35;;;16.05;;
21804;SDS011;11064;47.102;15.452;2023-04-24T07:45:13;25.02;;;17.10;;
21804;SDS011;11064;47.102;15.452;2023-04-24T07:47:43;24.58;;;16.88;;
21804;SDS011;11064;47.102;15.452;2023-04-24T07:50:10;24.02;;;16.48;;
21804;SDS011;11064;47.102;15.452;2023-04-24T07:52:37;25.83;;;17.08;;
21804;SDS011;11064;47.102;15.452;2023-04-24T07:55:03;25.17;;;17.15;;
21804;SDS011;11064;47.102;15.452;2023-04-24T07:57:29;25.85;;;17.13;;
21804;SDS011;11064;47.102;15.452;2023-04-24T07:59:55;56.78;;;18.42;;
21804;SDS011;11064;47.102;15.452;2023-04-24T08:02:21;25.05;;;17.50;;
21804;SDS011;11064;47.102;15.452;2023-04-24T08:04:51;29.57;;;17.10;;
21804;SDS011;11064;47.102;15.452;2023-04-24T08:07:19;102.45;;;19.52;;
21804;SDS011;11064;47.102;15.452;2023-04-24T08:09:45;99.63;;;20.13;;
21804;SDS011;11064;47.102;15.452;2023-04-24T08:12:10;343.70;;;26.60;;
21804;SDS011;11064;47.102;15.452;2023-04-24T08:14:36;375.67;;;26.38;;
21804;SDS011;11064;47.102;15.452;2023-04-24T08:17:02;363.60;;;25.60;;
21804;SDS011;11064;47.102;15.452;2023-04-24T08:19:28;105.47;;;18.90;;
21804;SDS011;11064;47.102;15.452;2023-04-24T08:21:54;171.05;;;22.23;;
21804;SDS011;11064;47.102;15.452;2023-04-24T08:24:20;26.50;;;17.17;;
21804;SDS011;11064;47.102;15.452;2023-04-24T08:26:47;61.60;;;19.05;;
21804;SDS011;11064;47.102;15.452;2023-04-24T08:29:15;98.57;;;20.13;;
21804;SDS011;11064;47.102;15.452;2023-04-24T08:31:41;75.57;;;20.27;;
21804;SDS011;11064;47.102;15.452;2023-04-24T08:34:07;35.00;;;18.02;;
21804;SDS011;11064;47.102;15.452;2023-04-24T08:36:34;85.32;;;20.00;;
21804;SDS011;11064;47.102;15.452;2023-04-24T08:39:00;26.17;;;17.30;;
21804;SDS011;11064;47.102;15.452;2023-04-24T08:41:26;30.50;;;17.75;;
21804;SDS011;11064;47.102;15.452;2023-04-24T08:43:52;77.82;;;19.40;;
21804;SDS011;11064;47.102;15.452;2023-04-24T08:46:18;23.15;;;16.02;;
21804;SDS011;11064;47.102;15.452;2023-04-24T08:48:45;62.20;;;16.48;;
21804;SDS011;11064;47.102;15.452;2023-04-24T08:51:11;113.03;;;19.73;;
21804;SDS011;11064;47.102;15.452;2023-04-24T08:53:37;78.47;;;18.48;;
21804;SDS011;11064;47.102;15.452;2023-04-24T08:56:03;280.42;;;25.13;;
21804;SDS011;11064;47.102;15.452;2023-04-24T08:58:29;213.48;;;22.23;;
21804;SDS011;11064;47.102;15.452;2023-04-24T09:00:57;127.82;;;19.25;;
21804;SDS011;11064;47.102;15.452;2023-04-24T09:03:24;24.38;;;16.33;;
21804;SDS011;11064;47.102;15.452;2023-04-24T09:05:52;32.53;;;16.63;;
21804;SDS011;11064;47.102;15.452;2023-04-24T09:08:20;30.70;;;16.23;;
21804;SDS011;11064;47.102;15.452;2023-04-24T09:10:50;86.38;;;18.60;;
21804;SDS011;11064;47.102;15.452;2023-04-24T09:13:17;27.67;;;16.08;;
21804;SDS011;11064;47.102;15.452;2023-04-24T09:15:45;422.40;;;30.70;;
21804;SDS011;11064;47.102;15.452;2023-04-24T09:18:11;15.63;;;10.98;;
21804;SDS011;11064;47.102;15.452;2023-04-24T09:21:37;905.30;;;46.17;;
21804;SDS011;11064;47.102;15.452;2023-04-24T09:23:32;12.75;;;8.43;;
21804;SDS011;11064;47.102;15.452;2023-04-24T09:25:59;81.05;;;14.90;;
21804;SDS011;11064;47.102;15.452;2023-04-24T09:28:30;15.10;;;10.50;;
21804;SDS011;11064;47.102;15.452;2023-04-24T09:31:12;16.85;;;11.07;;
21804;SDS011;11064;47.102;15.452;2023-04-24T09:34:04;12.77;;;9.18;;
21804;SDS011;11064;47.102;15.452;2023-04-24T09:36:36;6.60;;;4.07;;
21804;SDS011;11064;47.102;15.452;2023-04-24T09:41:31;6.63;;;4.80;;
21804;SDS011;11064;47.102;15.452;2023-04-24T09:43:58;7.35;;;4.88;;
21804;SDS011;11064;47.102;15.452;2023-04-24T09:46:45;2.90;;;2.25;;
21804;SDS011;11064;47.102;15.452;2023-04-24T09:49:16;4.93;;;3.28;;
21804;SDS011;11064;47.102;15.452;2023-04-24T09:51:46;2.17;;;1.88;;
21804;SDS011;11064;47.102;15.452;2023-04-24T09:54:16;3.05;;;2.28;;
21804;SDS011;11064;47.102;15.452;2023-04-24T09:56:50;2.97;;;2.20;;
21804;SDS011;11064;47.102;15.452;2023-04-24T09:59:17;3.15;;;2.47;;
21804;SDS011;11064;47.102;15.452;2023-04-24T10:01:44;4.07;;;2.45;;
21804;SDS011;11064;47.102;15.452;2023-04-24T10:04:27;6.82;;;2.90;;
21804;SDS011;11064;47.102;15.452;2023-04-24T10:07:09;4.10;;;3.13;;
21804;SDS011;11064;47.102;15.452;2023-04-24T10:09:35;3.13;;;2.60;;
21804;SDS011;11064;47.102;15.452;2023-04-24T10:12:01;3.10;;;2.70;;
21804;SDS011;11064;47.102;15.452;2023-04-24T10:14:28;3.60;;;2.42;;
21804;SDS011;11064;47.102;15.452;2023-04-24T10:16:55;3.38;;;2.53;;
21804;SDS011;11064;47.102;15.452;2023-04-24T10:19:22;3.03;;;2.10;;
21804;SDS011;11064;47.102;15.452;2023-04-24T10:21:51;4.47;;;2.10;;
21804;SDS011;11064;47.102;15.452;2023-04-24T10:24:19;3.72;;;2.00;;
21804;SDS011;11064;47.102;15.452;2023-04-24T10:26:48;3.33;;;1.83;;
21804;SDS011;11064;47.102;15.452;2023-04-24T10:29:14;3.65;;;1.50;;
21804;SDS011;11064;47.102;15.452;2023-04-24T10:31:42;4.15;;;2.00;;
21804;SDS011;11064;47.102;15.452;2023-04-24T10:34:11;2.20;;;1.58;;
21804;SDS011;11064;47.102;15.452;2023-04-24T10:36:48;3.47;;;2.05;;
21804;SDS011;11064;47.102;15.452;2023-04-24T10:39:16;3.47;;;1.92;;
21804;SDS011;11064;47.102;15.452;2023-04-24T10:41:44;3.05;;;1.95;;
21804;SDS011;11064;47.102;15.452;2023-04-24T10:44:13;2.67;;;1.70;;
21804;SDS011;11064;47.102;15.452;2023-04-24T10:46:46;1.40;;;1.30;;
21804;SDS011;11064;47.102;15.452;2023-04-24T10:49:20;2.60;;;1.60;;
21804;SDS011;11064;47.102;15.452;2023-04-24T10:51:54;2.90;;;1.50;;
21804;SDS011;11064;47.102;15.452;2023-04-24T10:54:27;4.55;;;1.52;;
21804;SDS011;11064;47.102;15.452;2023-04-24T10:59:49;2.13;;;1.10;;
21804;SDS011;11064;47.102;15.452;2023-04-24T11:02:17;2.80;;;1.05;;
21804;SDS011;11064;47.102;15.452;2023-04-24T11:04:44;1.40;;;0.95;;
21804;SDS011;11064;47.102;15.452;2023-04-24T11:07:12;2.92;;;1.38;;
21804;SDS011;11064;47.102;15.452;2023-04-24T11:09:38;2.45;;;1.10;;
21804;SDS011;11064;47.102;15.452;2023-04-24T11:12:08;1.48;;;1.15;;
21804;SDS011;11064;47.102;15.452;2023-04-24T11:17:37;1.00;;;0.90;;
21804;SDS011;11064;47.102;15.452;2023-04-24T11:20:11;1.98;;;0.80;;
21804;SDS011;11064;47.102;15.452;2023-04-24T11:22:41;1.05;;;0.70;;
21804;SDS011;11064;47.102;15.452;2023-04-24T11:25:07;2.08;;;0.90;;
21804;SDS011;11064;47.102;15.452;2023-04-24T11:30:09;1.60;;;0.70;;
21804;SDS011;11064;47.102;15.452;2023-04-24T11:32:37;2.35;;;0.80;;
21804;SDS011;11064;47.102;15.452;2023-04-24T11:35:15;2.83;;;0.70;;
21804;SDS011;11064;47.102;15.452;2023-04-24T11:37:49;1.35;;;0.90;;
21804;SDS011;11064;47.102;15.452;2023-04-24T11:40:17;1.45;;;1.08;;
21804;SDS011;11064;47.102;15.452;2023-04-24T11:42:48;2.97;;;0.70;;
21804;SDS011;11064;47.102;15.452;2023-04-24T11:45:16;0.82;;;0.52;;
21804;SDS011;11064;47.102;15.452;2023-04-24T11:47:43;0.73;;;0.40;;
21804;SDS011;11064;47.102;15.452;2023-04-24T11:50:11;0.95;;;0.50;;
21804;SDS011;11064;47.102;15.452;2023-04-24T11:52:39;0.40;;;0.40;;
21804;SDS011;11064;47.102;15.452;2023-04-24T11:55:07;0.90;;;0.70;;
21804;SDS011;11064;47.102;15.452;2023-04-24T11:57:52;1.83;;;0.70;;
21804;SDS011;11064;47.102;15.452;2023-04-24T12:00:28;1.00;;;0.90;;
21804;SDS011;11064;47.102;15.452;2023-04-24T12:03:09;2.78;;;0.90;;
21804;SDS011;11064;47.102;15.452;2023-04-24T12:05:36;1.25;;;0.80;;
21804;SDS011;11064;47.102;15.452;2023-04-24T12:08:03;2.13;;;0.80;;
21804;SDS011;11064;47.102;15.452;2023-04-24T12:10:30;0.98;;;0.70;;
21804;SDS011;11064;47.102;15.452;2023-04-24T12:12:57;2.75;;;0.70;;
21804;SDS011;11064;47.102;15.452;2023-04-24T12:15:24;1.55;;;1.20;;
21804;SDS011;11064;47.102;15.452;2023-04-24T12:17:51;3.08;;;1.05;;
21804;SDS011;11064;47.102;15.452;2023-04-24T12:20:19;0.85;;;0.85;;
21804;SDS011;11064;47.102;15.452;2023-04-24T12:22:54;1.20;;;1.00;;
21804;SDS011;11064;47.102;15.452;2023-04-24T12:25:22;1.38;;;0.80;;
21804;SDS011;11064;47.102;15.452;2023-04-24T12:28:09;2.65;;;1.10;;
21804;SDS011;11064;47.102;15.452;2023-04-24T12:30:42;1.27;;;1.00;;
21804;SDS011;11064;47.102;15.452;2023-04-24T12:33:09;3.33;;;1.10;;
21804;SDS011;11064;47.102;15.452;2023-04-24T12:35:36;2.97;;;0.90;;
21804;SDS011;11064;47.102;15.452;2023-04-24T12:38:08;2.25;;;0.80;;
21804;SDS011;11064;47.102;15.452;2023-04-24T12:40:35;0.70;;;0.70;;
21804;SDS011;11064;47.102;15.452;2023-04-24T12:43:01;2.15;;;0.90;;
21804;SDS011;11064;47.102;15.452;2023-04-24T12:45:27;0.73;;;0.60;;
21804;SDS011;11064;47.102;15.452;2023-04-24T12:47:54;0.63;;;0.60;;
21804;SDS011;11064;47.102;15.452;2023-04-24T12:50:20;0.50;;;0.50;;
21804;SDS011;11064;47.102;15.452;2023-04-24T12:52:45;1.00;;;0.68;;
21804;SDS011;11064;47.102;15.452;2023-04-24T12:55:11;0.40;;;0.40;;
21804;SDS011;11064;47.102;15.452;2023-04-24T12:57:38;3.88;;;0.57;;
21804;SDS011;11064;47.102;15.452;2023-04-24T13:00:05;0.80;;;0.80;;
21804;SDS011;11064;47.102;15.452;2023-04-24T13:02:33;1.17;;;1.00;;
21804;SDS011;11064;47.102;15.452;2023-04-24T13:05:00;0.70;;;0.70;;
21804;SDS011;11064;47.102;15.452;2023-04-24T13:07:27;3.50;;;0.68;;
21804;SDS011;11064;47.102;15.452;2023-04-24T13:09:54;4.68;;;0.90;;
21804;SDS011;11064;47.102;15.452;2023-04-24T13:12:20;1.52;;;0.50;;
21804;SDS011;11064;47.102;15.452;2023-04-24T13:14:47;1.58;;;0.50;;
21804;SDS011;11064;47.102;15.452;2023-04-24T13:17:13;1.85;;;0.50;;
21804;SDS011;11064;47.102;15.452;2023-04-24T13:19:40;0.68;;;0.60;;
21804;SDS011;11064;47.102;15.452;2023-04-24T13:22:12;1.58;;;0.50;;
21804;SDS011;11064;47.102;15.452;2023-04-24T13:24:38;0.88;;;0.40;;
21804;SDS011;11064;47.102;15.452;2023-04-24T13:27:07;0.60;;;0.47;;
21804;SDS011;11064;47.102;15.452;2023-04-24T13:29:35;0.52;;;0.50;;
21804;SDS011;11064;47.102;15.452;2023-04-24T13:32:01;0.55;;;0.55;;
21804;SDS011;11064;47.102;15.452;2023-04-24T13:34:27;1.25;;;0.50;;
21804;SDS011;11064;47.102;15.452;2023-04-24T13:36:53;0.40;;;0.40;;
21804;SDS011;11064;47.102;15.452;2023-04-24T13:39:21;1.05;;;0.57;;
21804;SDS011;11064;47.102;15.452;2023-04-24T13:41:48;2.13;;;0.70;;
21804;SDS011;11064;47.102;15.452;2023-04-24T13:44:14;0.70;;;0.60;;
21804;SDS011;11064;47.102;15.452;2023-04-24T13:46:41;0.90;;;0.77;;
21804;SDS011;11064;47.102;15.452;2023-04-24T13:49:11;2.83;;;0.60;;
21804;SDS011;11064;47.102;15.452;2023-04-24T13:51:38;0.80;;;0.60;;
21804;SDS011;11064;47.102;15.452;2023-04-24T13:54:05;1.48;;;0.50;;
21804;SDS011;11064;47.102;15.452;2023-04-24T13:56:31;0.70;;;0.70;;
21804;SDS011;11064;47.102;15.452;2023-04-24T13:58:56;1.40;;;1.30;;
21804;SDS011;11064;47.102;15.452;2023-04-24T14:01:23;1.20;;;0.70;;
21804;SDS011;11064;47.102;15.452;2023-04-24T14:03:53;0.68;;;0.60;;
21804;SDS011;11064;47.102;15.452;2023-04-24T14:06:21;0.98;;;0.70;;
21804;SDS011;11064;47.102;15.452;2023-04-24T14:08:48;1.40;;;0.90;;
21804;SDS011;11064;47.102;15.452;2023-04-24T14:11:15;3.03;;;0.60;;
21804;SDS011;11064;47.102;15.452;2023-04-24T14:13:42;1.45;;;0.73;;
21804;SDS011;11064;47.102;15.452;2023-04-24T14:16:09;2.75;;;0.70;;
21804;SDS011;11064;47.102;15.452;2023-04-24T14:18:35;2.58;;;0.70;;
21804;SDS011;11064;47.102;15.452;2023-04-24T14:21:02;1.58;;;0.73;;
21804;SDS011;11064;47.102;15.452;2023-04-24T14:23:28;2.90;;;0.70;;
21804;SDS011;11064;47.102;15.452;2023-04-24T14:25:54;2.90;;;0.80;;
21804;SDS011;11064;47.102;15.452;2023-04-24T14:28:20;0.70;;;0.70;;
21804;SDS011;11064;47.102;15.452;2023-04-24T14:30:47;0.70;;;0.70;;
21804;SDS011;11064;47.102;15.452;2023-04-24T14:33:13;1.05;;;0.70;;
21804;SDS011;11064;47.102;15.452;2023-04-24T14:35:40;2.20;;;0.80;;
21804;SDS011;11064;47.102;15.452;2023-04-24T14:38:09;0.90;;;0.80;;
21804;SDS011;11064;47.102;15.452;2023-04-24T14:40:36;0.90;;;0.90;;
21804;SDS011;11064;47.102;15.452;2023-04-24T14:43:02;2.13;;;0.80;;
21804;SDS011;11064;47.102;15.452;2023-04-24T14:45:28;1.50;;;1.00;;
21804;SDS011;11064;47.102;15.452;2023-04-24T14:47:54;1.83;;;0.90;;
21804;SDS011;11064;47.102;15.452;2023-04-24T14:50:21;1.27;;;0.93;;
21804;SDS011;11064;47.102;15.452;2023-04-24T14:52:47;4.63;;;1.60;;
21804;SDS011;11064;47.102;15.452;2023-04-24T14:55:13;1.33;;;0.95;;
21804;SDS011;11064;47.102;15.452;2023-04-24T14:57:39;2.83;;;1.00;;
21804;SDS011;11064;47.102;15.452;2023-04-24T15:00:05;2.22;;;1.10;;
21804;SDS011;11064;47.102;15.452;2023-04-24T15:02:34;3.15;;;1.20;;
21804;SDS011;11064;47.102;15.452;2023-04-24T15:05:02;0.82;;;0.80;;
21804;SDS011;11064;47.102;15.452;2023-04-24T15:07:29;1.15;;;1.00;;
21804;SDS011;11064;47.102;15.452;2023-04-24T15:09:56;2.40;;;1.10;;
21804;SDS011;11064;47.102;15.452;2023-04-24T15:12:22;1.50;;;0.90;;
21804;SDS011;11064;47.102;15.452;2023-04-24T15:14:48;1.23;;;1.00;;
21804;SDS011;11064;47.102;15.452;2023-04-24T15:17:13;3.00;;;0.93;;
21804;SDS011;11064;47.102;15.452;2023-04-24T15:19:39;1.58;;;1.10;;
21804;SDS011;11064;47.102;15.452;2023-04-24T15:22:05;1.30;;;1.00;;
21804;SDS011;11064;47.102;15.452;2023-04-24T15:24:31;1.15;;;0.95;;
21804;SDS011;11064;47.102;15.452;2023-04-24T15:26:57;0.90;;;0.80;;
21804;SDS011;11064;47.102;15.452;2023-04-24T15:29:24;1.33;;;1.00;;
21804;SDS011;11064;47.102;15.452;2023-04-24T15:31:52;1.10;;;1.00;;
21804;SDS011;11064;47.102;15.452;2023-04-24T15:34:18;1.05;;;0.93;;
21804;SDS011;11064;47.102;15.452;2023-04-24T15:36:43;3.72;;;1.02;;
21804;SDS011;11064;47.102;15.452;2023-04-24T15:39:09;1.30;;;0.93;;
21804;SDS011;11064;47.102;15.452;2023-04-24T15:41:35;2.13;;;1.17;;
21804;SDS011;11064;47.102;15.452;2023-04-24T15:44:01;1.25;;;1.15;;
21804;SDS011;11064;47.102;15.452;2023-04-24T15:46:27;2.13;;;1.00;;
21804;SDS011;11064;47.102;15.452;2023-04-24T15:48:53;5.43;;;1.50;;
21804;SDS011;11064;47.102;15.452;2023-04-24T15:51:19;2.28;;;1.20;;
21804;SDS011;11064;47.102;15.452;2023-04-24T15:53:45;1.88;;;0.80;;
21804;SDS011;11064;47.102;15.452;2023-04-24T15:56:10;3.08;;;0.75;;
21804;SDS011;11064;47.102;15.452;2023-04-24T15:58:37;3.45;;;0.70;;
21804;SDS011;11064;47.102;15.452;2023-04-24T16:01:03;0.70;;;0.70;;
21804;SDS011;11064;47.102;15.452;2023-04-24T16:03:29;0.90;;;0.80;;
21804;SDS011;11064;47.102;15.452;2023-04-24T16:05:55;0.63;;;0.60;;
21804;SDS011;11064;47.102;15.452;2023-04-24T16:08:21;1.00;;;0.90;;
21804;SDS011;11064;47.102;15.452;2023-04-24T16:10:46;0.93;;;0.75;;
21804;SDS011;11064;47.102;15.452;2023-04-24T16:13:13;1.92;;;0.70;;
21804;SDS011;11064;47.102;15.452;2023-04-24T16:15:40;1.42;;;0.80;;
21804;SDS011;11064;47.102;15.452;2023-04-24T16:18:07;1.50;;;0.80;;
21804;SDS011;11064;47.102;15.452;2023-04-24T16:20:33;0.88;;;0.88;;
21804;SDS011;11064;47.102;15.452;2023-04-24T16:22:59;2.38;;;0.70;;
21804;SDS011;11064;47.102;15.452;2023-04-24T16:25:24;0.88;;;0.68;;
21804;SDS011;11064;47.102;15.452;2023-04-24T16:27:50;0.93;;;0.70;;
21804;SDS011;11064;47.102;15.452;2023-04-24T16:30:17;2.42;;;0.60;;
21804;SDS011;11064;47.102;15.452;2023-04-24T16:32:43;1.55;;;0.70;;
21804;SDS011;11064;47.102;15.452;2023-04-24T16:35:09;0.68;;;0.60;;
21804;SDS011;11064;47.102;15.452;2023-04-24T16:37:35;1.08;;;0.60;;
21804;SDS011;11064;47.102;15.452;2023-04-24T16:40:01;0.60;;;0.60;;
21804;SDS011;11064;47.102;15.452;2023-04-24T16:42:30;1.40;;;0.70;;
21804;SDS011;11064;47.102;15.452;2023-04-24T16:44:56;0.93;;;0.70;;
21804;SDS011;11064;47.102;15.452;2023-04-24T16:47:22;1.20;;;0.70;;
21804;SDS011;11064;47.102;15.452;2023-04-24T16:49:48;1.08;;;0.70;;
21804;SDS011;11064;47.102;15.452;2023-04-24T16:52:14;2.35;;;0.75;;
21804;SDS011;11064;47.102;15.452;2023-04-24T16:54:40;4.75;;;1.35;;
21804;SDS011;11064;47.102;15.452;2023-04-24T16:57:06;1.50;;;1.13;;
21804;SDS011;11064;47.102;15.452;2023-04-24T16:59:32;3.67;;;1.95;;
21804;SDS011;11064;47.102;15.452;2023-04-24T17:02:02;2.45;;;1.17;;
21804;SDS011;11064;47.102;15.452;2023-04-24T17:04:27;1.52;;;1.33;;
21804;SDS011;11064;47.102;15.452;2023-04-24T17:06:54;2.60;;;1.60;;
21804;SDS011;11064;47.102;15.452;2023-04-24T17:09:20;3.00;;;1.90;;
21804;SDS011;11064;47.102;15.452;2023-04-24T17:11:46;2.38;;;1.67;;
21804;SDS011;11064;47.102;15.452;2023-04-24T17:14:12;5.63;;;1.98;;
21804;SDS011;11064;47.102;15.452;2023-04-24T17:16:37;3.13;;;2.15;;
21804;SDS011;11064;47.102;15.452;2023-04-24T17:19:05;4.05;;;2.17;;
21804;SDS011;11064;47.102;15.452;2023-04-24T17:21:31;2.58;;;2.00;;
21804;SDS011;11064;47.102;15.452;2023-04-24T17:23:58;2.58;;;2.05;;
21804;SDS011;11064;47.102;15.452;2023-04-24T17:26:24;4.70;;;2.00;;
21804;SDS011;11064;47.102;15.452;2023-04-24T17:28:51;3.63;;;2.28;;
21804;SDS011;11064;47.102;15.452;2023-04-24T17:31:19;2.92;;;2.47;;
21804;SDS011;11064;47.102;15.452;2023-04-24T17:33:45;3.05;;;2.33;;
21804;SDS011;11064;47.102;15.452;2023-04-24T17:36:13;4.30;;;2.10;;
21804;SDS011;11064;47.102;15.452;2023-04-24T17:38:38;3.22;;;2.40;;
21804;SDS011;11064;47.102;15.452;2023-04-24T17:41:05;3.13;;;2.40;;
21804;SDS011;11064;47.102;15.452;2023-04-24T17:43:31;4.25;;;2.85;;
21804;SDS011;11064;47.102;15.452;2023-04-24T17:45:57;4.10;;;2.60;;
21804;SDS011;11064;47.102;15.452;2023-04-24T17:48:26;6.63;;;3.05;;
21804;SDS011;11064;47.102;15.452;2023-04-24T17:50:52;4.22;;;3.40;;
21804;SDS011;11064;47.102;15.452;2023-04-24T17:53:18;4.55;;;3.25;;
21804;SDS011;11064;47.102;15.452;2023-04-24T17:55:45;6.47;;;5.80;;
21804;SDS011;11064;47.102;15.452;2023-04-24T17:58:11;6.25;;;4.40;;
21804;SDS011;11064;47.102;15.452;2023-04-24T18:00:38;6.32;;;3.50;;
21804;SDS011;11064;47.102;15.452;2023-04-24T18:03:06;6.70;;;3.50;;
21804;SDS011;11064;47.102;15.452;2023-04-24T18:05:34;4.63;;;3.03;;
21804;SDS011;11064;47.102;15.452;2023-04-24T18:08:04;4.63;;;2.50;;
21804;SDS011;11064;47.102;15.452;2023-04-24T18:10:30;6.18;;;2.75;;
21804;SDS011;11064;47.102;15.452;2023-04-24T18:12:57;3.83;;;2.38;;
21804;SDS011;11064;47.102;15.452;2023-04-24T18:15:24;4.30;;;3.10;;
21804;SDS011;11064;47.102;15.452;2023-04-24T18:17:50;4.57;;;2.78;;
21804;SDS011;11064;47.102;15.452;2023-04-24T18:20:17;4.75;;;2.85;;
21804;SDS011;11064;47.102;15.452;2023-04-24T18:22:45;4.82;;;2.45;;
21804;SDS011;11064;47.102;15.452;2023-04-24T18:25:12;5.35;;;3.20;;
21804;SDS011;11064;47.102;15.452;2023-04-24T18:27:39;5.30;;;2.70;;
21804;SDS011;11064;47.102;15.452;2023-04-24T18:30:07;3.35;;;2.78;;
21804;SDS011;11064;47.102;15.452;2023-04-24T18:32:34;3.45;;;2.75;;
21804;SDS011;11064;47.102;15.452;2023-04-24T18:35:00;4.00;;;3.10;;
21804;SDS011;11064;47.102;15.452;2023-04-24T18:37:27;5.43;;;3.13;;